Time;durP1;ratioP1;P1;durP2;ratioP2;P2;SDS_P1;SDS_P2;PMS_P1;PMS_P2;Temp;Humidity;BMP_temperature;BMP_pressure;BME280_temperature;BME280_humidity;BME280_pressure;Samples;Min_cycle;Max_cycle;Signal;HPM_P1;HPM_P2
2023/03/04 00:00:35;;;;;;;14.20;8.00;;;;;;;0.02;74.37;98393.65;105942;1259;61065;-25
2023/03/04 00:03:03;;;;;;;19.90;9.30;;;;;;;-0.19;74.71;98383.20;105667;1257;75183;-25
2023/03/04 00:05:32;;;;;;;18.90;9.60;;;;;;;-0.43;75.69;98382.96;105551;1257;75750;-25
2023/03/04 00:08:00;;;;;;;17.90;8.50;;;;;;;-0.47;76.55;98380.44;105801;1264;73413;-25
2023/03/04 00:10:30;;;;;;;22.50;8.40;;;;;;;-0.12;75.12;98366.54;105679;1254;61064;-25
2023/03/04 00:13:01;;;;;;;16.30;9.00;;;;;;;0.14;73.73;98363.70;105514;1253;61137;-25
2023/03/04 00:15:30;;;;;;;18.30;8.70;;;;;;;0.18;73.21;98369.02;105584;1257;75334;-25
2023/03/04 00:18:02;;;;;;;17.90;8.50;;;;;;;0.06;73.87;98363.75;105545;1259;75655;-25
2023/03/04 00:20:30;;;;;;;14.90;8.00;;;;;;;-0.14;75.17;98367.45;105593;1260;74015;-25
2023/03/04 00:22:59;;;;;;;17.10;7.60;;;;;;;-0.25;75.90;98369.35;105497;1258;61151;-25
2023/03/04 00:25:27;;;;;;;20.80;11.40;;;;;;;-0.36;76.52;98359.98;105554;1257;61425;-25
2023/03/04 00:27:57;;;;;;;23.10;9.80;;;;;;;-0.45;76.64;98342.67;105735;1254;74679;-26
2023/03/04 00:30:33;;;;;;;15.30;8.50;;;;;;;-0.03;75.39;98340.48;105553;1260;74844;-25
2023/03/04 00:33:02;;;;;;;20.90;10.80;;;;;;;0.13;74.34;98335.77;105770;1260;74202;-26
2023/03/04 00:35:31;;;;;;;17.60;8.90;;;;;;;0.09;74.73;98343.30;105522;1259;61192;-26
2023/03/04 00:37:59;;;;;;;16.70;9.50;;;;;;;-0.07;75.12;98333.71;105520;1255;61689;-25
2023/03/04 00:40:28;;;;;;;12.90;8.10;;;;;;;-0.22;75.65;98333.39;105531;1258;75540;-26
2023/03/04 00:42:59;;;;;;;22.90;9.90;;;;;;;-0.37;76.85;98324.90;105505;1257;74169;-25
2023/03/04 00:45:27;;;;;;;25.40;11.90;;;;;;;-0.39;77.24;98327.03;105532;1267;74249;-27
2023/03/04 00:47:58;;;;;;;24.20;10.70;;;;;;;0.07;75.78;98311.33;105518;1260;61450;-26
2023/03/04 00:50:27;;;;;;;22.30;10.00;;;;;;;0.26;74.72;98315.13;105647;1255;61128;-25
2023/03/04 00:52:56;;;;;;;20.20;8.70;;;;;;;0.26;74.47;98315.80;105859;1254;75225;-26
2023/03/04 00:55:24;;;;;;;18.90;12.00;;;;;;;0.07;75.03;98299.73;105871;1257;75868;-26
2023/03/04 00:57:53;;;;;;;26.40;11.30;;;;;;;-0.12;75.97;98300.99;105909;1258;73217;-25
2023/03/04 01:00:22;;;;;;;19.50;9.50;;;;;;;-0.21;76.59;98308.60;105676;1254;61170;-25
2023/03/04 01:02:51;;;;;;;17.00;8.90;;;;;;;-0.22;76.99;98303.20;105901;1265;61783;-25
2023/03/04 01:05:21;;;;;;;23.40;11.40;;;;;;;0.13;75.17;98284.55;105818;1256;75100;-25
2023/03/04 01:07:49;;;;;;;21.00;11.10;;;;;;;0.33;74.03;98292.60;105492;1260;75871;-26
2023/03/04 01:10:24;;;;;;;27.90;13.40;;;;;;;0.18;73.39;98272.52;105665;1254;74186;-25
2023/03/04 01:12:53;;;;;;;24.00;13.80;;;;;;;0.05;74.32;98293.30;105786;1259;61060;-25
2023/03/04 01:15:22;;;;;;;22.50;12.10;;;;;;;-0.06;74.45;98284.17;105580;1257;61269;-25
2023/03/04 01:17:53;;;;;;;30.20;14.90;;;;;;;-0.25;75.10;98278.41;105613;1257;75966;-24
2023/03/04 01:20:22;;;;;;;20.60;10.80;;;;;;;-0.36;75.77;98276.23;105688;1254;74660;-24
2023/03/04 01:22:51;;;;;;;16.10;8.90;;;;;;;0.03;74.19;98270.72;105706;1254;73886;-24
2023/03/04 01:25:20;;;;;;;22.30;11.40;;;;;;;0.22;73.47;98270.27;105780;1255;61058;-25
2023/03/04 01:27:48;;;;;;;19.30;10.80;;;;;;;0.27;73.59;98282.16;105730;1254;61811;-24
2023/03/04 01:30:21;;;;;;;25.90;11.80;;;;;;;0.05;73.90;98274.55;105671;1260;75322;-24
2023/03/04 01:32:49;;;;;;;22.40;11.90;;;;;;;-0.10;74.66;98272.75;105875;1266;74868;-24
2023/03/04 01:35:20;;;;;;;24.80;13.00;;;;;;;-0.29;75.06;98255.58;105713;1257;72195;-24
2023/03/04 01:37:49;;;;;;;16.80;9.90;;;;;;;-0.30;75.51;98259.05;105682;1257;62932;-24
2023/03/04 01:40:17;;;;;;;13.70;7.90;;;;;;;0.14;73.90;98256.50;105518;1260;62087;-24
2023/03/04 01:42:47;;;;;;;19.40;10.80;;;;;;;0.52;72.57;98258.81;105596;1253;75416;-25
2023/03/04 01:45:17;;;;;;;17.10;8.90;;;;;;;0.43;72.47;98255.00;105766;1255;74677;-24
2023/03/04 01:47:47;;;;;;;28.90;13.40;;;;;;;0.34;72.92;98258.55;105701;1254;74100;-24
2023/03/04 01:50:28;;;;;;;25.10;12.90;;;;;;;0.12;73.81;98259.81;105513;1255;61026;-25
2023/03/04 01:52:59;;;;;;;19.70;10.50;;;;;;;-0.05;74.14;98247.60;105509;1260;61712;-26
2023/03/04 01:55:29;;;;;;;20.40;11.70;;;;;;;-0.15;74.44;98239.41;105519;1259;75308;-24
2023/03/04 01:57:57;;;;;;;21.80;11.90;;;;;;;0.04;74.38;98234.85;105417;1260;75801;-24
2023/03/04 02:00:26;;;;;;;20.80;11.50;;;;;;;0.45;72.90;98244.16;105730;1254;74283;-24
2023/03/04 02:03:18;;;;;;;16.60;8.70;;;;;;;0.57;72.02;98240.27;105772;1255;61646;-24
2023/03/04 02:05:48;;;;;;;22.50;10.90;;;;;;;0.48;72.21;98236.16;105548;1254;61864;-24
2023/03/04 02:08:19;;;;;;;23.10;10.50;;;;;;;0.26;72.92;98236.30;105685;1254;75275;-24
2023/03/04 02:10:50;;;;;;;;;;;;;;;0.14;73.71;98239.07;105714;1254;75694;-24
2023/03/04 02:13:21;;;;;;;16.60;9.30;;;;;;;-0.00;74.33;98233.69;105608;1259;74280;-24
2023/03/04 02:15:49;;;;;;;25.80;10.90;;;;;;;-0.10;74.80;98228.36;105638;1254;61156;-24
2023/03/04 02:18:20;;;;;;;21.60;9.60;;;;;;;0.13;74.44;98220.89;105727;1261;61167;-24
2023/03/04 02:21:13;;;;;;;22.30;9.50;;;;;;;0.59;72.96;98224.15;105645;1254;76003;-24
2023/03/04 02:23:46;;;;;;;19.80;9.40;;;;;;;0.69;72.16;98222.06;105549;1254;75543;-24
2023/03/04 02:26:16;;;;;;;23.80;10.80;;;;;;;0.61;72.35;98222.80;105502;1254;74218;-24
2023/03/04 02:28:47;;;;;;;25.60;12.30;;;;;;;0.43;72.63;98214.03;105396;1254;61162;-24
2023/03/04 02:31:35;;;;;;;26.10;13.10;;;;;;;0.26;73.33;98210.44;105578;1259;61048;-24
2023/03/04 02:34:11;;;;;;;25.00;12.80;;;;;;;0.14;73.80;98204.80;105732;1259;75476;-24
2023/03/04 02:36:41;;;;;;;28.60;12.80;;;;;;;0.01;74.60;98207.67;105566;1268;75838;-24
2023/03/04 02:39:19;;;;;;;25.40;11.10;;;;;;;-0.05;75.05;98204.77;105900;1254;74208;-23
2023/03/04 02:41:50;;;;;;;23.30;11.30;;;;;;;0.49;74.08;98203.61;105648;1261;61257;-24
2023/03/04 02:44:22;;;;;;;17.40;8.90;;;;;;;0.96;71.94;98199.56;105247;1260;61039;-24
2023/03/04 02:46:52;;;;;;;23.70;11.80;;;;;;;0.99;71.25;98196.50;105495;1263;75296;-24
2023/03/04 02:49:21;;;;;;;16.30;9.30;;;;;;;0.86;71.97;98197.55;105522;1259;75676;-24
2023/03/04 02:51:58;;;;;;;22.50;11.50;;;;;;;0.60;72.66;98198.76;105562;1257;74033;-24
2023/03/04 02:54:27;;;;;;;23.50;11.50;;;;;;;0.35;73.50;98188.13;105531;1261;61164;-24
2023/03/04 03:04:41;;;;;;;15.50;9.20;;;;;;;0.44;72.75;98164.95;102705;1291;600207;-25
2023/03/04 03:07:13;;;;;;;22.60;11.00;;;;;;;0.55;71.64;98158.21;105107;1264;61071;-26
2023/03/04 03:09:48;;;;;;;19.50;8.70;;;;;;;0.37;71.79;98149.45;105029;1269;61704;-26
2023/03/04 03:12:18;;;;;;;21.80;11.60;;;;;;;0.22;72.06;98145.15;105112;1267;73503;-26
2023/03/04 03:14:47;;;;;;;21.00;11.00;;;;;;;0.01;72.55;98137.38;105102;1267;75967;-26
2023/03/04 03:17:17;;;;;;;17.40;9.90;;;;;;;-0.17;73.41;98137.12;103829;1266;1908121;-26
2023/03/04 03:19:47;;;;;;;18.20;10.60;;;;;;;-0.29;74.11;98139.45;105142;1261;61166;-26
2023/03/04 03:22:16;;;;;;;21.70;10.90;;;;;;;-0.37;74.43;98143.05;105261;1263;61885;-26
2023/03/04 03:24:45;;;;;;;19.00;8.60;;;;;;;0.03;73.73;98132.80;105280;1259;73895;-26
2023/03/04 03:27:14;;;;;;;20.00;9.50;;;;;;;0.47;72.00;98126.54;105211;1263;75921;-26
2023/03/04 03:29:45;;;;;;;21.70;11.50;;;;;;;0.55;71.60;98125.77;105268;1260;74218;-26
2023/03/04 03:32:13;;;;;;;16.40;8.50;;;;;;;0.39;71.93;98114.52;105286;1259;61058;-26
2023/03/04 03:34:43;;;;;;;22.30;10.70;;;;;;;0.25;72.29;98112.70;105193;1263;61884;-26
2023/03/04 03:37:13;;;;;;;29.00;11.30;;;;;;;0.06;72.83;98112.48;105128;1260;74575;-26
2023/03/04 03:39:41;;;;;;;27.00;11.70;;;;;;;-0.05;73.53;98109.02;105144;1264;76017;-26
2023/03/04 03:42:10;;;;;;;27.10;12.80;;;;;;;-0.14;73.82;98107.78;105082;1261;73893;-26
2023/03/04 03:44:39;;;;;;;25.30;12.20;;;;;;;-0.22;73.79;98097.92;105188;1261;61051;-27
2023/03/04 03:47:07;;;;;;;19.30;8.90;;;;;;;-0.25;73.77;98094.33;105265;1266;61674;-26
2023/03/04 03:49:36;;;;;;;20.60;9.60;;;;;;;0.40;73.49;98095.66;105201;1266;74587;-26
2023/03/04 03:52:07;;;;;;;22.30;10.60;;;;;;;0.99;71.75;98092.77;105060;1266;75619;-26
2023/03/04 03:54:36;;;;;;;23.70;11.00;;;;;;;1.10;71.12;98087.33;105159;1262;74142;-26
2023/03/04 03:57:05;;;;;;;22.90;10.40;;;;;;;0.90;71.30;98083.65;105169;1264;61297;-26
2023/03/04 03:59:35;;;;;;;28.00;11.90;;;;;;;0.65;72.19;98078.91;105038;1261;61818;-26
2023/03/04 04:02:04;;;;;;;26.10;11.80;;;;;;;0.44;73.39;98075.30;105238;1263;74596;-26
2023/03/04 04:04:33;;;;;;;23.80;10.70;;;;;;;0.27;73.86;98067.70;105290;1263;75833;-26
2023/03/04 04:07:02;;;;;;;22.50;11.10;;;;;;;0.11;74.46;98060.55;105058;1263;74233;-26
2023/03/04 04:09:33;;;;;;;25.10;10.80;;;;;;;-0.09;75.59;98052.58;105100;1261;61170;-26
2023/03/04 04:12:04;;;;;;;27.40;12.10;;;;;;;0.09;75.68;98054.35;105158;1266;62178;-26
2023/03/04 04:14:40;;;;;;;23.00;11.50;;;;;;;0.78;73.92;98053.06;105201;1263;74151;-26
2023/03/04 04:17:09;;;;;;;23.40;11.00;;;;;;;0.92;72.37;98048.89;105219;1263;75786;-26
2023/03/04 04:19:39;;;;;;;27.60;13.50;;;;;;;0.78;71.87;98042.31;105264;1263;73065;-26
2023/03/04 04:22:14;;;;;;;19.50;10.60;;;;;;;0.64;72.48;98041.23;105104;1261;61145;-26
2023/03/04 04:24:43;;;;;;;23.00;12.40;;;;;;;0.42;72.75;98042.31;105167;1263;61253;-26
2023/03/04 04:27:12;;;;;;;28.40;13.80;;;;;;;0.14;73.13;98039.71;105270;1261;74533;-26
2023/03/04 04:29:41;;;;;;;23.10;11.90;;;;;;;-0.03;73.63;98033.79;105247;1264;75824;-26
2023/03/04 04:32:12;;;;;;;18.50;9.10;;;;;;;-0.18;74.03;98023.02;105235;1263;73652;-26
2023/03/04 04:34:43;;;;;;;21.00;10.30;;;;;;;0.11;73.47;98023.30;105154;1263;62737;-26
2023/03/04 04:37:12;;;;;;;26.30;12.40;;;;;;;0.64;71.66;98027.73;105252;1266;61851;-26
2023/03/04 04:39:41;;;;;;;22.80;11.20;;;;;;;0.74;70.70;98026.34;105185;1264;74350;-26
2023/03/04 04:42:10;;;;;;;19.80;10.50;;;;;;;0.57;71.08;98022.33;105157;1261;75891;-26
2023/03/04 04:44:40;;;;;;;24.70;11.00;;;;;;;0.42;71.34;98022.67;105127;1263;74231;-26
2023/03/04 04:47:09;;;;;;;26.90;13.10;;;;;;;0.23;71.78;98016.36;105182;1263;61166;-27
2023/03/04 04:49:37;;;;;;;25.70;10.80;;;;;;;0.03;72.15;98013.17;105186;1264;61102;-26
2023/03/04 04:52:06;;;;;;;25.80;10.80;;;;;;;-0.16;72.97;98008.91;105226;1265;74451;-26
2023/03/04 04:54:34;;;;;;;14.10;7.00;;;;;;;-0.32;73.38;98008.08;105187;1264;75949;-26
2023/03/04 04:57:03;;;;;;;21.10;10.40;;;;;;;-0.42;74.32;98002.63;105086;1263;74213;-26
2023/03/04 04:59:32;;;;;;;22.00;8.80;;;;;;;0.08;73.10;98011.21;105051;1261;62195;-26
2023/03/04 05:02:04;;;;;;;28.30;10.50;;;;;;;0.44;71.76;98014.17;105102;1262;61857;-26
2023/03/04 05:04:32;;;;;;;22.40;9.20;;;;;;;0.45;71.48;98015.34;105138;1264;74591;-26
2023/03/04 05:07:01;;;;;;;22.60;9.00;;;;;;;0.29;71.29;98012.64;105110;1264;75696;-26
2023/03/04 05:09:30;;;;;;;21.20;10.70;;;;;;;0.11;71.95;98003.55;105216;1261;74245;-26
2023/03/04 05:11:59;;;;;;;26.30;12.70;;;;;;;-0.07;72.67;97994.63;105120;1261;61123;-26
2023/03/04 05:14:34;;;;;;;18.00;10.10;;;;;;;-0.21;73.13;97989.77;105084;1263;61912;-26
2023/03/04 05:17:03;;;;;;;20.00;10.00;;;;;;;-0.34;73.77;97986.54;105149;1263;74338;-26
2023/03/04 05:19:32;;;;;;;20.70;11.30;;;;;;;-0.35;74.27;97981.29;105191;1264;75835;-25
2023/03/04 05:22:04;;;;;;;25.50;12.10;;;;;;;0.20;72.81;97987.02;105227;1263;74152;-26
2023/03/04 05:24:33;;;;;;;22.20;10.20;;;;;;;0.45;71.41;97984.42;105171;1264;61834;-26
2023/03/04 05:27:02;;;;;;;16.10;8.60;;;;;;;0.35;71.29;97966.36;105251;1263;61059;-26
2023/03/04 05:29:31;;;;;;;26.00;12.30;;;;;;;0.13;71.24;97958.72;105239;1264;74490;-26
2023/03/04 05:31:59;;;;;;;24.90;12.90;;;;;;;-0.09;72.30;97955.45;105221;1263;75738;-26
2023/03/04 05:34:28;;;;;;;21.30;11.50;;;;;;;-0.30;72.41;97946.88;105263;1263;73984;-26
2023/03/04 05:36:57;;;;;;;16.90;9.30;;;;;;;-0.40;72.99;97940.80;105162;1262;61211;-26
2023/03/04 05:39:28;;;;;;;18.90;9.40;;;;;;;-0.50;73.42;97953.10;105220;1264;61501;-26
2023/03/04 05:41:56;;;;;;;15.30;7.70;;;;;;;-0.26;73.59;97963.92;105186;1263;74584;-26
2023/03/04 05:44:28;;;;;;;19.50;9.80;;;;;;;0.23;71.48;97956.42;105247;1263;76090;-26
2023/03/04 05:46:57;;;;;;;26.00;12.40;;;;;;;0.31;70.63;97954.63;105203;1264;74339;-26
2023/03/04 05:49:26;;;;;;;25.10;12.70;;;;;;;0.20;71.28;97956.59;105252;1263;61203;-26
2023/03/04 05:51:55;;;;;;;27.20;13.10;;;;;;;-0.04;71.68;97945.83;105128;1266;61926;-26
2023/03/04 05:54:24;;;;;;;24.10;11.20;;;;;;;-0.19;72.15;97958.59;104915;1263;74770;-26
2023/03/04 05:56:53;;;;;;;20.70;11.40;;;;;;;-0.32;73.12;97961.86;105058;1263;75826;-25
2023/03/04 05:59:22;;;;;;;28.60;14.00;;;;;;;-0.40;73.38;97959.40;105059;1261;73850;-25
2023/03/04 06:01:51;;;;;;;17.90;9.50;;;;;;;-0.53;73.66;97942.52;105209;1264;61264;-25
2023/03/04 06:04:19;;;;;;;22.70;10.30;;;;;;;-0.10;73.06;97947.19;105040;1263;61720;-26
2023/03/04 06:06:52;;;;;;;19.20;10.20;;;;;;;0.30;71.18;97947.02;104926;1266;74292;-26
2023/03/04 06:09:21;;;;;;;22.30;10.90;;;;;;;0.35;70.71;97954.05;105259;1263;75379;-25
2023/03/04 06:11:49;;;;;;;22.60;11.60;;;;;;;0.20;70.75;97943.48;105194;1263;74219;-25
2023/03/04 06:14:24;;;;;;;21.80;10.30;;;;;;;-0.01;71.64;97944.15;105145;1261;61154;-25
2023/03/04 06:16:53;;;;;;;30.90;13.10;;;;;;;-0.08;71.60;97950.49;104929;1264;61716;-26
2023/03/04 06:19:22;;;;;;;22.00;11.20;;;;;;;-0.16;72.27;97947.70;105090;1260;74312;-25
2023/03/04 06:21:51;;;;;;;20.20;11.20;;;;;;;-0.24;72.39;97946.93;105131;1263;75855;-25
2023/03/04 06:24:19;;;;;;;23.80;11.20;;;;;;;-0.26;72.72;97944.64;105237;1263;74050;-25
2023/03/04 06:26:48;;;;;;;23.10;11.10;;;;;;;0.19;72.10;97946.58;105236;1264;61116;-25
2023/03/04 06:29:17;;;;;;;21.80;10.00;;;;;;;0.75;70.12;97945.30;105244;1266;61673;-25
2023/03/04 06:31:46;;;;;;;18.70;9.10;;;;;;;0.93;69.30;97933.13;105286;1263;74342;-25
2023/03/04 06:34:18;;;;;;;19.00;8.50;;;;;;;0.87;69.17;97930.38;105251;1263;75866;-25
2023/03/04 06:36:47;;;;;;;26.00;12.70;;;;;;;0.66;69.37;97931.25;105265;1263;72927;-25
2023/03/04 06:39:17;;;;;;;22.40;11.40;;;;;;;0.55;69.79;97930.52;105168;1266;61112;-25
2023/03/04 06:41:46;;;;;;;15.60;8.20;;;;;;;0.49;69.95;97940.13;105127;1263;61710;-26
2023/03/04 06:44:14;;;;;;;24.90;12.50;;;;;;;0.45;70.60;97940.69;105683;1259;74552;-25
2023/03/04 06:46:44;;;;;;;28.50;12.60;;;;;;;0.36;70.54;97940.67;105620;1254;75830;-25
2023/03/04 06:49:12;;;;;;;20.10;11.50;;;;;;;0.40;70.84;97939.10;105620;1254;74170;-24
2023/03/04 06:51:42;;;;;;;22.50;10.00;;;;;;;0.43;70.69;97944.54;105658;1254;61256;-24
2023/03/04 06:54:10;;;;;;;19.90;9.70;;;;;;;0.57;71.35;97950.92;105689;1255;61785;-25
2023/03/04 06:56:39;;;;;;;19.80;10.50;;;;;;;1.20;69.68;97945.16;105687;1254;74565;-24
2023/03/04 06:59:07;;;;;;;15.80;8.40;;;;;;;1.69;67.05;97943.41;105700;1259;75575;-25
2023/03/04 07:01:36;;;;;;;21.60;11.20;;;;;;;1.61;66.23;97936.70;105744;1254;73333;-25
2023/03/04 07:04:05;;;;;;;18.30;8.80;;;;;;;1.38;66.06;97934.33;105662;1254;61119;-25
2023/03/04 07:06:34;;;;;;;19.60;9.30;;;;;;;1.25;67.05;97937.02;105631;1254;61845;-25
2023/03/04 07:09:02;;;;;;;21.50;8.90;;;;;;;1.19;67.73;97944.90;105657;1254;74591;-26
2023/03/04 07:11:31;;;;;;;19.40;10.30;;;;;;;1.15;67.54;97943.80;105737;1259;75123;-25
2023/03/04 07:14:00;;;;;;;18.20;9.90;;;;;;;0.96;67.77;97928.70;105697;1260;73896;-25
2023/03/04 07:16:29;;;;;;;18.10;9.40;;;;;;;0.81;68.58;97939.15;105685;1254;61732;-25
2023/03/04 07:18:58;;;;;;;15.70;8.60;;;;;;;0.74;68.62;97926.52;105722;1259;61905;-25
2023/03/04 07:21:32;;;;;;;17.00;9.40;;;;;;;0.75;68.62;97925.81;105661;1259;75011;-25
2023/03/04 07:24:01;;;;;;;20.60;11.60;;;;;;;0.75;69.02;97936.91;105647;1257;75845;-25
2023/03/04 07:26:30;;;;;;;14.80;8.90;;;;;;;0.78;68.82;97930.78;105492;1254;74210;-25
2023/03/04 07:28:59;;;;;;;19.50;10.20;;;;;;;0.66;68.55;97936.06;105497;1254;61052;-25
2023/03/04 07:31:30;;;;;;;21.30;10.90;;;;;;;0.56;68.97;97937.00;105489;1258;61832;-25
2023/03/04 07:34:00;;;;;;;24.20;12.30;;;;;;;0.52;69.34;97941.68;105550;1262;76045;-25
2023/03/04 07:36:30;;;;;;;14.70;8.40;;;;;;;0.42;69.41;97935.70;105508;1254;75860;-25
2023/03/04 07:39:01;;;;;;;19.50;10.80;;;;;;;0.79;67.73;97920.46;105494;1254;73298;-25
2023/03/04 07:41:30;;;;;;;16.30;7.90;;;;;;;0.99;66.98;97925.25;105701;1255;61872;-25
2023/03/04 07:43:59;;;;;;;20.10;10.10;;;;;;;0.92;66.54;97914.20;105696;1254;61065;-25
2023/03/04 07:46:27;;;;;;;22.10;12.90;;;;;;;0.76;67.48;97926.95;105729;1254;75402;-26
2023/03/04 07:48:56;;;;;;;22.80;11.90;;;;;;;0.58;68.03;97924.05;105607;1264;76125;-25
2023/03/04 07:51:31;;;;;;;20.10;12.00;;;;;;;0.60;68.44;97925.66;105429;1254;73835;-25
2023/03/04 07:54:00;;;;;;;17.50;9.80;;;;;;;0.44;68.26;97914.24;105494;1260;61214;-25
2023/03/04 07:56:31;;;;;;;21.40;12.90;;;;;;;0.36;69.08;97930.45;105683;1254;61182;-26
2023/03/04 07:59:00;;;;;;;24.50;13.20;;;;;;;0.28;69.16;97920.45;105543;1259;75346;-25
2023/03/04 08:01:30;;;;;;;22.00;11.60;;;;;;;0.19;70.64;97925.73;105498;1260;75599;-25
2023/03/04 08:03:59;;;;;;;18.30;10.90;;;;;;;0.21;70.22;97909.80;105131;1254;73134;-25
2023/03/04 08:06:28;;;;;;;20.90;10.40;;;;;;;0.12;70.31;97908.71;105483;1260;62696;-25
2023/03/04 08:09:02;;;;;;;22.90;10.90;;;;;;;0.57;69.19;97910.95;105440;1254;61658;-25
2023/03/04 08:11:32;;;;;;;20.70;10.90;;;;;;;0.70;68.24;97906.48;105269;1260;74184;-25
2023/03/04 08:14:00;;;;;;;20.00;12.30;;;;;;;0.50;68.47;97900.94;105522;1258;75751;-25
2023/03/04 08:16:34;;;;;;;20.80;12.50;;;;;;;0.37;69.00;97910.23;105434;1254;72960;-25
2023/03/04 08:19:03;;;;;;;22.50;13.80;;;;;;;0.23;69.52;97893.26;105476;1260;61059;-25
2023/03/04 08:21:32;;;;;;;26.60;14.00;;;;;;;0.08;70.51;97910.35;105276;1260;61850;-25
2023/03/04 08:24:06;;;;;;;25.90;14.30;;;;;;;-0.06;71.22;97897.28;105501;1254;75377;-26
2023/03/04 08:26:40;;;;;;;19.50;12.40;;;;;;;-0.12;71.69;97909.59;105490;1260;75709;-25
2023/03/04 08:29:14;;;;;;;23.90;12.40;;;;;;;-0.04;71.78;97911.36;105190;1263;74211;-25
2023/03/04 08:31:45;;;;;;;23.20;14.60;;;;;;;0.23;70.66;97909.46;105434;1260;61050;-25
2023/03/04 08:34:17;;;;;;;22.40;12.40;;;;;;;0.29;70.44;97932.04;105602;1258;61505;-26
2023/03/04 08:36:50;;;;;;;24.80;12.80;;;;;;;0.04;71.29;97905.46;105318;1254;75354;-25
2023/03/04 08:39:19;;;;;;;24.00;14.00;;;;;;;-0.04;71.64;97922.44;105525;1257;75979;-25
2023/03/04 08:41:48;;;;;;;23.90;12.60;;;;;;;-0.30;71.79;97903.39;105494;1254;73266;-25
2023/03/04 08:44:17;;;;;;;30.30;16.90;;;;;;;-0.40;72.73;97904.60;105505;1260;61043;-25
2023/03/04 08:46:45;;;;;;;27.90;16.40;;;;;;;-0.48;73.13;97914.60;105525;1258;61825;-26
2023/03/04 08:49:17;;;;;;;20.00;12.70;;;;;;;-0.11;71.98;97904.59;105561;1254;75350;-25
2023/03/04 08:51:46;;;;;;;30.00;14.80;;;;;;;0.15;71.23;97915.59;105623;1254;75870;-25
2023/03/04 08:54:14;;;;;;;28.70;16.20;;;;;;;0.04;71.04;97916.70;105672;1259;73061;-25
2023/03/04 08:56:43;;;;;;;28.50;15.20;;;;;;;-0.11;71.72;97912.60;105703;1259;61061;-25
2023/03/04 08:59:12;;;;;;;27.80;14.10;;;;;;;-0.21;71.95;97909.71;105499;1258;61171;-25
2023/03/04 09:01:40;;;;;;;27.90;16.50;;;;;;;-0.40;72.50;97920.13;105597;1258;75334;-25
2023/03/04 09:04:10;;;;;;;20.20;12.10;;;;;;;-0.49;73.34;97911.44;105540;1257;75800;-25
2023/03/04 09:06:39;;;;;;;25.60;14.40;;;;;;;-0.21;73.64;97922.36;105474;1254;73863;-25
2023/03/04 09:09:08;;;;;;;25.10;12.50;;;;;;;0.18;72.19;97925.34;105534;1254;61049;-25
2023/03/04 09:11:40;;;;;;;25.50;14.50;;;;;;;0.19;71.31;97919.24;105633;1259;61086;-25
2023/03/04 09:14:09;;;;;;;21.70;11.60;;;;;;;0.08;71.55;97921.96;105637;1259;75302;-26
2023/03/04 09:16:39;;;;;;;28.60;15.60;;;;;;;-0.16;71.80;97904.88;105675;1254;75704;-25
2023/03/04 09:19:07;;;;;;;25.80;13.90;;;;;;;-0.28;71.90;97932.27;105507;1254;74399;-26
2023/03/04 09:21:39;;;;;;;24.40;12.70;;;;;;;-0.34;72.95;97930.20;105536;1259;61183;-25
2023/03/04 09:24:07;;;;;;;27.90;16.20;;;;;;;-0.38;73.24;97927.36;105566;1259;61891;-24
2023/03/04 09:26:36;;;;;;;21.90;11.50;;;;;;;-0.11;72.18;97923.84;105632;1254;74379;-24
2023/03/04 09:29:06;;;;;;;22.20;12.70;;;;;;;0.05;71.00;97932.66;105693;1254;75820;-25
2023/03/04 09:31:34;;;;;;;26.20;14.80;;;;;;;0.08;69.98;97908.31;105739;1254;73665;-26
2023/03/04 09:34:05;;;;;;;22.40;12.20;;;;;;;-0.01;69.72;97927.75;105797;1253;61087;-25
2023/03/04 09:36:34;;;;;;;23.00;11.70;;;;;;;-0.09;70.34;97932.98;105883;1259;61840;-25
2023/03/04 09:39:06;;;;;;;21.90;12.60;;;;;;;-0.13;70.73;97940.20;105928;1254;75358;-25
2023/03/04 09:41:43;;;;;;;21.40;12.70;;;;;;;-0.30;71.06;97929.52;105875;1257;76014;-25
2023/03/04 09:44:14;;;;;;;18.50;11.80;;;;;;;-0.41;71.65;97933.35;105506;1262;74529;-25
2023/03/04 09:46:44;;;;;;;24.00;13.70;;;;;;;-0.21;71.45;97926.79;105881;1256;61151;-26
2023/03/04 09:49:12;;;;;;;23.80;12.40;;;;;;;-0.06;70.33;97935.16;105611;1258;61105;-26
2023/03/04 09:52:34;;;;;;;24.10;11.90;;;;;;;0.01;69.92;97906.80;105734;1257;75282;-24
2023/03/04 09:55:14;;;;;;;22.60;12.30;;;;;;;-0.28;70.25;97916.76;105344;1261;75813;-25
2023/03/04 09:57:54;;;;;;;18.00;10.00;;;;;;;-0.39;71.22;97935.98;105578;1260;74399;-25
2023/03/04 10:00:43;;;;;;;26.00;13.90;;;;;;;-0.48;71.52;97923.81;105620;1258;61048;-25
2023/03/04 10:03:21;;;;;;;22.00;12.70;;;;;;;-0.55;71.55;97910.71;105563;1257;61163;-25
2023/03/04 10:05:53;;;;;;;24.50;11.20;;;;;;;-0.56;72.06;97927.30;105494;1261;73244;-25
2023/03/04 10:08:30;;;;;;;23.70;12.00;;;;;;;-0.26;71.04;97923.64;105526;1263;75876;-25
2023/03/04 10:10:59;;;;;;;26.50;14.60;;;;;;;-0.13;70.81;97924.98;105693;1254;74081;-25
2023/03/04 10:13:39;;;;;;;22.90;13.20;;;;;;;-0.16;70.99;97924.15;105468;1258;61059;-25
2023/03/04 10:16:08;;;;;;;18.90;10.30;;;;;;;-0.28;70.80;97901.25;105221;1260;61374;-25
2023/03/04 10:18:40;;;;;;;22.20;11.60;;;;;;;-0.36;72.00;97917.73;105653;1254;75388;-25
2023/03/04 10:21:34;;;;;;;22.00;11.80;;;;;;;-0.37;72.14;97909.23;105628;1259;75736;-25
2023/03/04 10:24:18;;;;;;;22.10;12.90;;;;;;;-0.46;71.67;97890.15;105715;1259;73158;-25
2023/03/04 10:27:03;;;;;;;21.70;11.70;;;;;;;-0.40;71.69;97902.60;105685;1259;61141;-25
2023/03/04 10:29:32;;;;;;;25.90;15.00;;;;;;;-0.09;71.07;97902.25;105661;1260;62164;-25
2023/03/04 10:32:01;;;;;;;22.80;13.80;;;;;;;-0.13;70.80;97892.91;105838;1258;75276;-25
2023/03/04 10:34:30;;;;;;;22.20;12.70;;;;;;;-0.29;71.42;97895.34;105642;1260;75590;-25
2023/03/04 10:37:00;;;;;;;19.90;10.90;;;;;;;-0.36;71.88;97894.20;105507;1259;73761;-25
2023/03/04 10:39:48;;;;;;;27.20;15.50;;;;;;;-0.48;72.17;97884.96;105458;1255;61128;-25
2023/03/04 10:42:18;;;;;;;17.50;10.40;;;;;;;-0.64;73.12;97899.98;105283;1262;61636;-25
2023/03/04 10:44:52;;;;;;;29.50;12.10;;;;;;;-0.46;72.65;97890.83;105499;1259;73747;-25
2023/03/04 10:47:28;;;;;;;25.40;13.50;;;;;;;0.03;71.08;97900.93;105612;1260;74571;-25
2023/03/04 10:49:59;;;;;;;20.00;12.50;;;;;;;-0.09;70.72;97888.61;105579;1261;73256;-25
2023/03/04 10:52:51;;;;;;;26.10;13.50;;;;;;;-0.22;70.52;97878.07;105514;1254;61316;-25
2023/03/04 10:55:28;;;;;;;22.90;13.10;;;;;;;-0.49;71.16;97875.41;105513;1259;61697;-25
2023/03/04 10:58:04;;;;;;;27.40;14.20;;;;;;;-0.59;71.77;97880.09;105471;1263;75288;-25
2023/03/04 11:00:33;;;;;;;20.60;11.60;;;;;;;-0.75;71.51;97866.30;105251;1260;76257;-25
2023/03/04 11:03:22;;;;;;;23.90;12.70;;;;;;;-0.73;71.74;97865.35;105313;1259;73208;-25
2023/03/04 11:06:02;;;;;;;16.80;10.50;;;;;;;-0.69;71.53;97847.88;105475;1254;62784;-25
2023/03/04 11:08:33;;;;;;;23.30;12.40;;;;;;;-0.32;70.80;97878.08;105298;1260;61727;-25
2023/03/04 11:11:02;;;;;;;21.90;11.90;;;;;;;-0.22;70.28;97873.27;105745;1256;74814;-25
2023/03/04 11:13:30;;;;;;;18.10;10.80;;;;;;;-0.15;70.20;97868.29;105601;1256;75887;-25
2023/03/04 11:16:20;;;;;;;22.30;12.30;;;;;;;-0.28;70.67;97851.30;105535;1257;74151;-25
2023/03/04 11:18:54;;;;;;;16.00;9.40;;;;;;;-0.25;71.25;97855.36;105709;1255;61170;-25
2023/03/04 11:21:24;;;;;;;17.50;10.40;;;;;;;-0.25;71.20;97831.34;105652;1269;61879;-25
2023/03/04 11:24:00;;;;;;;18.70;10.80;;;;;;;-0.23;71.08;97828.98;105416;1254;75643;-25
2023/03/04 11:26:46;;;;;;;20.80;11.90;;;;;;;0.17;70.77;97831.13;105388;1262;76235;-25
2023/03/04 11:29:16;;;;;;;16.10;9.00;;;;;;;0.53;69.30;97829.92;105331;1254;73078;-26
2023/03/04 11:31:54;;;;;;;18.40;8.70;;;;;;;0.70;68.14;97820.54;105483;1259;61150;-25
2023/03/04 11:34:31;;;;;;;16.20;8.80;;;;;;;0.61;67.85;97818.12;105341;1260;61892;-25
2023/03/04 11:37:09;;;;;;;14.70;8.30;;;;;;;0.47;68.12;97816.90;105521;1260;75322;-26
2023/03/04 11:39:43;;;;;;;18.30;10.60;;;;;;;0.42;68.77;97814.50;105488;1260;75985;-26
2023/03/04 11:42:15;;;;;;;16.30;9.10;;;;;;;0.38;69.19;97813.18;105365;1259;73098;-25